sensor_id;sensor_type;location;lat;lon;timestamp;temperature;humidity
26952;DHT22;14507;52.418;13.398;2022-12-07T00:01:32;3.50;99.90
26952;DHT22;14507;52.418;13.398;2022-12-07T00:04:00;3.50;99.90
26952;DHT22;14507;52.418;13.398;2022-12-07T00:06:33;3.50;99.90
26952;DHT22;14507;52.418;13.398;2022-12-07T00:09:00;3.40;99.90
26952;DHT22;14507;52.418;13.398;2022-12-07T00:11:26;3.50;99.90
26952;DHT22;14507;52.418;13.398;2022-12-07T00:13:53;3.70;99.90
26952;DHT22;14507;52.418;13.398;2022-12-07T00:16:22;3.50;99.90
26952;DHT22;14507;52.418;13.398;2022-12-07T00:18:48;3.50;99.90
26952;DHT22;14507;52.418;13.398;2022-12-07T00:21:19;3.50;99.90
26952;DHT22;14507;52.418;13.398;2022-12-07T00:23:46;3.50;99.90
26952;DHT22;14507;52.418;13.398;2022-12-07T00:28:53;3.50;99.90
26952;DHT22;14507;52.418;13.398;2022-12-07T00:31:21;3.40;99.90
26952;DHT22;14507;52.418;13.398;2022-12-07T00:33:47;3.40;99.90
26952;DHT22;14507;52.418;13.398;2022-12-07T00:36:15;3.40;99.90
26952;DHT22;14507;52.418;13.398;2022-12-07T00:38:41;3.40;99.90
26952;DHT22;14507;52.418;13.398;2022-12-07T00:41:14;3.30;99.90
26952;DHT22;14507;52.418;13.398;2022-12-07T00:43:40;3.30;99.90
26952;DHT22;14507;52.418;13.398;2022-12-07T00:46:06;3.30;99.90
26952;DHT22;14507;52.418;13.398;2022-12-07T00:48:32;3.20;99.90
26952;DHT22;14507;52.418;13.398;2022-12-07T00:50:58;3.10;99.90
26952;DHT22;14507;52.418;13.398;2022-12-07T00:53:24;3.10;99.90
26952;DHT22;14507;52.418;13.398;2022-12-07T00:55:50;3.10;99.90
26952;DHT22;14507;52.418;13.398;2022-12-07T00:58:16;3.10;99.90
26952;DHT22;14507;52.418;13.398;2022-12-07T01:00:42;3.00;99.90
26952;DHT22;14507;52.418;13.398;2022-12-07T01:03:10;3.00;99.90
26952;DHT22;14507;52.418;13.398;2022-12-07T01:05:36;2.90;99.90
26952;DHT22;14507;52.418;13.398;2022-12-07T01:08:03;2.70;99.90
26952;DHT22;14507;52.418;13.398;2022-12-07T01:10:29;2.80;99.90
26952;DHT22;14507;52.418;13.398;2022-12-07T01:12:56;2.80;99.90
26952;DHT22;14507;52.418;13.398;2022-12-07T01:15:21;3.10;99.90
26952;DHT22;14507;52.418;13.398;2022-12-07T01:17:47;2.90;99.90
26952;DHT22;14507;52.418;13.398;2022-12-07T01:20:13;2.90;99.90
26952;DHT22;14507;52.418;13.398;2022-12-07T01:22:41;2.80;99.90
26952;DHT22;14507;52.418;13.398;2022-12-07T01:25:09;2.90;99.90
26952;DHT22;14507;52.418;13.398;2022-12-07T01:27:35;2.80;99.90
26952;DHT22;14507;52.418;13.398;2022-12-07T01:30:02;2.80;99.90
26952;DHT22;14507;52.418;13.398;2022-12-07T01:32:28;2.80;99.90
26952;DHT22;14507;52.418;13.398;2022-12-07T01:34:54;2.80;99.90
26952;DHT22;14507;52.418;13.398;2022-12-07T01:37:20;2.80;99.90
26952;DHT22;14507;52.418;13.398;2022-12-07T01:39:49;2.80;99.90
26952;DHT22;14507;52.418;13.398;2022-12-07T01:42:15;2.80;99.90
26952;DHT22;14507;52.418;13.398;2022-12-07T01:47:47;2.80;99.90
26952;DHT22;14507;52.418;13.398;2022-12-07T01:50:14;2.80;99.90
26952;DHT22;14507;52.418;13.398;2022-12-07T01:52:41;2.80;99.90
26952;DHT22;14507;52.418;13.398;2022-12-07T01:55:09;2.70;99.90
26952;DHT22;14507;52.418;13.398;2022-12-07T01:57:40;2.80;99.90
26952;DHT22;14507;52.418;13.398;2022-12-07T02:00:07;2.80;99.90
26952;DHT22;14507;52.418;13.398;2022-12-07T02:02:43;2.80;99.90
26952;DHT22;14507;52.418;13.398;2022-12-07T02:05:11;2.70;99.90
26952;DHT22;14507;52.418;13.398;2022-12-07T02:07:38;2.70;99.90
26952;DHT22;14507;52.418;13.398;2022-12-07T02:10:24;2.70;99.90
26952;DHT22;14507;52.418;13.398;2022-12-07T02:12:58;2.70;99.90
26952;DHT22;14507;52.418;13.398;2022-12-07T02:15:33;2.70;99.90
26952;DHT22;14507;52.418;13.398;2022-12-07T02:18:12;2.60;99.90
26952;DHT22;14507;52.418;13.398;2022-12-07T02:20:53;2.60;99.90
26952;DHT22;14507;52.418;13.398;2022-12-07T02:29:32;2.50;99.90
26952;DHT22;14507;52.418;13.398;2022-12-07T02:32:25;2.50;99.90
26952;DHT22;14507;52.418;13.398;2022-12-07T02:40:45;2.30;99.90
26952;DHT22;14507;52.418;13.398;2022-12-07T02:43:28;2.30;99.90
26952;DHT22;14507;52.418;13.398;2022-12-07T02:45:59;2.30;99.90
26952;DHT22;14507;52.418;13.398;2022-12-07T02:48:27;2.30;99.90
26952;DHT22;14507;52.418;13.398;2022-12-07T02:50:54;2.40;99.90
26952;DHT22;14507;52.418;13.398;2022-12-07T02:53:33;2.30;99.90
26952;DHT22;14507;52.418;13.398;2022-12-07T02:59:07;2.30;99.90
26952;DHT22;14507;52.418;13.398;2022-12-07T03:06:53;2.20;99.90
26952;DHT22;14507;52.418;13.398;2022-12-07T03:09:32;2.30;99.90
26952;DHT22;14507;52.418;13.398;2022-12-07T03:12:09;2.90;99.90
26952;DHT22;14507;52.418;13.398;2022-12-07T03:15:00;2.20;99.90
26952;DHT22;14507;52.418;13.398;2022-12-07T03:17:31;2.10;99.90
26952;DHT22;14507;52.418;13.398;2022-12-07T03:20:00;2.20;99.90
26952;DHT22;14507;52.418;13.398;2022-12-07T03:22:30;2.20;99.90
26952;DHT22;14507;52.418;13.398;2022-12-07T03:24:59;2.10;99.90
26952;DHT22;14507;52.418;13.398;2022-12-07T03:27:31;2.20;99.90
26952;DHT22;14507;52.418;13.398;2022-12-07T03:30:10;2.20;99.90
26952;DHT22;14507;52.418;13.398;2022-12-07T03:32:50;2.20;99.90
26952;DHT22;14507;52.418;13.398;2022-12-07T03:35:29;2.20;99.90
26952;DHT22;14507;52.418;13.398;2022-12-07T03:38:05;2.20;99.90
26952;DHT22;14507;52.418;13.398;2022-12-07T03:41:23;2.10;99.90
26952;DHT22;14507;52.418;13.398;2022-12-07T03:43:23;2.20;99.90
26952;DHT22;14507;52.418;13.398;2022-12-07T03:48:53;2.20;99.90
26952;DHT22;14507;52.418;13.398;2022-12-07T03:51:25;2.40;99.90
26952;DHT22;14507;52.418;13.398;2022-12-07T03:54:27;2.20;99.90
26952;DHT22;14507;52.418;13.398;2022-12-07T03:56:54;2.20;99.90
26952;DHT22;14507;52.418;13.398;2022-12-07T03:59:21;2.20;99.90
26952;DHT22;14507;52.418;13.398;2022-12-07T04:02:02;2.20;99.90
26952;DHT22;14507;52.418;13.398;2022-12-07T04:04:29;2.20;99.90
26952;DHT22;14507;52.418;13.398;2022-12-07T04:06:54;2.20;99.90
26952;DHT22;14507;52.418;13.398;2022-12-07T04:09:20;3.10;99.90
26952;DHT22;14507;52.418;13.398;2022-12-07T04:11:46;2.20;99.90
26952;DHT22;14507;52.418;13.398;2022-12-07T04:14:12;2.30;99.90
26952;DHT22;14507;52.418;13.398;2022-12-07T04:16:44;2.40;99.90
26952;DHT22;14507;52.418;13.398;2022-12-07T04:19:10;2.40;99.90
26952;DHT22;14507;52.418;13.398;2022-12-07T04:21:36;2.30;99.90
26952;DHT22;14507;52.418;13.398;2022-12-07T04:24:02;2.30;99.90
26952;DHT22;14507;52.418;13.398;2022-12-07T04:26:28;2.30;99.90
26952;DHT22;14507;52.418;13.398;2022-12-07T04:28:56;2.20;99.90
26952;DHT22;14507;52.418;13.398;2022-12-07T04:31:22;2.60;99.90
26952;DHT22;14507;52.418;13.398;2022-12-07T04:33:47;3.00;99.90
26952;DHT22;14507;52.418;13.398;2022-12-07T04:36:13;3.00;99.90
26952;DHT22;14507;52.418;13.398;2022-12-07T04:38:39;2.10;99.90
26952;DHT22;14507;52.418;13.398;2022-12-07T04:41:06;2.10;99.90
26952;DHT22;14507;52.418;13.398;2022-12-07T04:43:31;2.10;99.90
26952;DHT22;14507;52.418;13.398;2022-12-07T04:45:57;2.10;99.90
26952;DHT22;14507;52.418;13.398;2022-12-07T04:48:23;2.10;99.90
26952;DHT22;14507;52.418;13.398;2022-12-07T04:50:49;2.10;99.90
26952;DHT22;14507;52.418;13.398;2022-12-07T04:53:17;2.20;99.90
26952;DHT22;14507;52.418;13.398;2022-12-07T04:55:44;2.20;99.90
26952;DHT22;14507;52.418;13.398;2022-12-07T04:58:10;2.30;99.90
26952;DHT22;14507;52.418;13.398;2022-12-07T05:00:36;2.20;99.90
26952;DHT22;14507;52.418;13.398;2022-12-07T05:03:01;2.30;99.90
26952;DHT22;14507;52.418;13.398;2022-12-07T05:05:27;2.20;99.90
26952;DHT22;14507;52.418;13.398;2022-12-07T05:07:53;2.20;99.90
26952;DHT22;14507;52.418;13.398;2022-12-07T05:10:19;2.30;99.90
26952;DHT22;14507;52.418;13.398;2022-12-07T05:12:47;2.30;99.90
26952;DHT22;14507;52.418;13.398;2022-12-07T05:15:14;2.30;99.90
26952;DHT22;14507;52.418;13.398;2022-12-07T05:17:40;2.40;99.90
26952;DHT22;14507;52.418;13.398;2022-12-07T05:20:07;2.30;99.90
26952;DHT22;14507;52.418;13.398;2022-12-07T05:22:33;2.40;99.90
26952;DHT22;14507;52.418;13.398;2022-12-07T05:24:59;3.00;99.90
26952;DHT22;14507;52.418;13.398;2022-12-07T05:27:24;2.40;99.90
26952;DHT22;14507;52.418;13.398;2022-12-07T05:29:50;2.40;99.90
26952;DHT22;14507;52.418;13.398;2022-12-07T05:32:17;3.00;99.90
26952;DHT22;14507;52.418;13.398;2022-12-07T05:34:42;3.10;99.90
26952;DHT22;14507;52.418;13.398;2022-12-07T05:37:08;2.40;99.90
26952;DHT22;14507;52.418;13.398;2022-12-07T05:39:34;2.50;99.90
26952;DHT22;14507;52.418;13.398;2022-12-07T05:41:59;2.50;99.90
26952;DHT22;14507;52.418;13.398;2022-12-07T05:44:38;3.00;99.90
26952;DHT22;14507;52.418;13.398;2022-12-07T05:47:03;2.50;99.90
26952;DHT22;14507;52.418;13.398;2022-12-07T05:49:29;2.50;99.90
26952;DHT22;14507;52.418;13.398;2022-12-07T05:51:55;2.50;99.90
26952;DHT22;14507;52.418;13.398;2022-12-07T05:54:21;2.50;99.90
26952;DHT22;14507;52.418;13.398;2022-12-07T05:56:46;2.50;99.90
26952;DHT22;14507;52.418;13.398;2022-12-07T05:59:12;2.50;99.90
26952;DHT22;14507;52.418;13.398;2022-12-07T06:04:19;2.60;99.90
26952;DHT22;14507;52.418;13.398;2022-12-07T06:06:44;2.60;99.90
26952;DHT22;14507;52.418;13.398;2022-12-07T06:09:10;3.00;99.90
26952;DHT22;14507;52.418;13.398;2022-12-07T06:11:38;2.60;99.90
26952;DHT22;14507;52.418;13.398;2022-12-07T06:14:22;2.80;99.90
26952;DHT22;14507;52.418;13.398;2022-12-07T06:16:48;2.70;99.90
26952;DHT22;14507;52.418;13.398;2022-12-07T06:19:13;2.70;99.90
26952;DHT22;14507;52.418;13.398;2022-12-07T06:21:39;2.80;99.90
26952;DHT22;14507;52.418;13.398;2022-12-07T06:24:05;2.80;99.90
26952;DHT22;14507;52.418;13.398;2022-12-07T06:26:31;2.80;99.90
26952;DHT22;14507;52.418;13.398;2022-12-07T06:28:57;2.80;99.90
26952;DHT22;14507;52.418;13.398;2022-12-07T06:31:22;2.80;99.90
26952;DHT22;14507;52.418;13.398;2022-12-07T06:33:48;2.80;99.90
26952;DHT22;14507;52.418;13.398;2022-12-07T06:36:14;2.80;99.90
26952;DHT22;14507;52.418;13.398;2022-12-07T06:38:39;3.40;99.90
26952;DHT22;14507;52.418;13.398;2022-12-07T06:41:05;2.90;99.90
26952;DHT22;14507;52.418;13.398;2022-12-07T06:43:31;3.10;99.90
26952;DHT22;14507;52.418;13.398;2022-12-07T06:45:57;3.00;99.90
26952;DHT22;14507;52.418;13.398;2022-12-07T06:48:23;3.00;99.90
26952;DHT22;14507;52.418;13.398;2022-12-07T06:50:48;3.50;99.90
26952;DHT22;14507;52.418;13.398;2022-12-07T06:53:14;3.00;99.90
26952;DHT22;14507;52.418;13.398;2022-12-07T06:55:40;2.90;99.90
26952;DHT22;14507;52.418;13.398;2022-12-07T06:58:06;3.10;99.90
26952;DHT22;14507;52.418;13.398;2022-12-07T07:00:32;3.10;99.90
26952;DHT22;14507;52.418;13.398;2022-12-07T07:03:00;3.10;99.90
26952;DHT22;14507;52.418;13.398;2022-12-07T07:05:25;3.00;99.90
26952;DHT22;14507;52.418;13.398;2022-12-07T07:07:51;3.10;99.90
26952;DHT22;14507;52.418;13.398;2022-12-07T07:10:17;3.10;99.90
26952;DHT22;14507;52.418;13.398;2022-12-07T07:12:42;3.10;99.90
26952;DHT22;14507;52.418;13.398;2022-12-07T07:15:08;3.20;99.90
26952;DHT22;14507;52.418;13.398;2022-12-07T07:17:34;3.20;99.90
26952;DHT22;14507;52.418;13.398;2022-12-07T07:20:00;3.70;99.90
26952;DHT22;14507;52.418;13.398;2022-12-07T07:22:26;3.20;99.90
26952;DHT22;14507;52.418;13.398;2022-12-07T07:24:51;3.30;99.90
26952;DHT22;14507;52.418;13.398;2022-12-07T07:27:17;3.50;99.90
26952;DHT22;14507;52.418;13.398;2022-12-07T07:29:43;3.30;99.90
26952;DHT22;14507;52.418;13.398;2022-12-07T07:32:08;3.40;99.90
26952;DHT22;14507;52.418;13.398;2022-12-07T07:34:34;3.40;99.90
26952;DHT22;14507;52.418;13.398;2022-12-07T07:36:59;3.40;99.90
26952;DHT22;14507;52.418;13.398;2022-12-07T07:39:25;3.40;99.90
26952;DHT22;14507;52.418;13.398;2022-12-07T07:41:51;3.50;99.90
26952;DHT22;14507;52.418;13.398;2022-12-07T07:44:16;3.50;99.90
26952;DHT22;14507;52.418;13.398;2022-12-07T07:46:42;3.50;99.90
26952;DHT22;14507;52.418;13.398;2022-12-07T07:49:09;3.60;99.90
26952;DHT22;14507;52.418;13.398;2022-12-07T07:51:35;3.50;99.90
26952;DHT22;14507;52.418;13.398;2022-12-07T07:54:02;4.10;99.90
26952;DHT22;14507;52.418;13.398;2022-12-07T07:56:28;3.60;99.90
26952;DHT22;14507;52.418;13.398;2022-12-07T07:58:54;3.70;99.90
26952;DHT22;14507;52.418;13.398;2022-12-07T08:01:20;3.70;99.90
26952;DHT22;14507;52.418;13.398;2022-12-07T08:03:49;3.70;99.90
26952;DHT22;14507;52.418;13.398;2022-12-07T08:06:15;3.70;99.90
26952;DHT22;14507;52.418;13.398;2022-12-07T08:08:40;3.80;99.90
26952;DHT22;14507;52.418;13.398;2022-12-07T08:11:07;3.90;99.90
26952;DHT22;14507;52.418;13.398;2022-12-07T08:13:33;4.00;99.90
26952;DHT22;14507;52.418;13.398;2022-12-07T08:16:04;4.00;99.90
26952;DHT22;14507;52.418;13.398;2022-12-07T08:18:30;4.00;99.90
26952;DHT22;14507;52.418;13.398;2022-12-07T08:20:59;4.00;99.90
26952;DHT22;14507;52.418;13.398;2022-12-07T08:23:26;4.00;99.90
26952;DHT22;14507;52.418;13.398;2022-12-07T08:25:52;4.00;99.90
26952;DHT22;14507;52.418;13.398;2022-12-07T08:28:17;4.00;99.90
26952;DHT22;14507;52.418;13.398;2022-12-07T08:30:43;4.00;99.90
26952;DHT22;14507;52.418;13.398;2022-12-07T08:33:09;4.00;99.90
26952;DHT22;14507;52.418;13.398;2022-12-07T08:35:35;4.00;99.90
26952;DHT22;14507;52.418;13.398;2022-12-07T08:38:01;4.00;99.90
26952;DHT22;14507;52.418;13.398;2022-12-07T08:40:28;4.00;99.90
26952;DHT22;14507;52.418;13.398;2022-12-07T08:42:54;3.90;99.90
26952;DHT22;14507;52.418;13.398;2022-12-07T08:45:21;4.00;99.90
26952;DHT22;14507;52.418;13.398;2022-12-07T08:48:07;4.00;99.90
26952;DHT22;14507;52.418;13.398;2022-12-07T08:50:36;4.00;99.90
26952;DHT22;14507;52.418;13.398;2022-12-07T08:53:03;4.00;99.90
26952;DHT22;14507;52.418;13.398;2022-12-07T08:55:30;4.00;99.90
26952;DHT22;14507;52.418;13.398;2022-12-07T08:58:00;4.10;99.90
26952;DHT22;14507;52.418;13.398;2022-12-07T09:00:27;4.10;99.90
26952;DHT22;14507;52.418;13.398;2022-12-07T09:02:53;4.00;99.90
26952;DHT22;14507;52.418;13.398;2022-12-07T09:05:19;4.10;99.90
26952;DHT22;14507;52.418;13.398;2022-12-07T09:07:47;4.10;99.90
26952;DHT22;14507;52.418;13.398;2022-12-07T09:10:15;4.10;99.90
26952;DHT22;14507;52.418;13.398;2022-12-07T09:12:40;4.10;99.90
26952;DHT22;14507;52.418;13.398;2022-12-07T09:15:06;4.20;99.90
26952;DHT22;14507;52.418;13.398;2022-12-07T09:17:33;4.20;99.90
26952;DHT22;14507;52.418;13.398;2022-12-07T09:19:59;4.20;99.90
26952;DHT22;14507;52.418;13.398;2022-12-07T09:22:29;4.20;99.90
26952;DHT22;14507;52.418;13.398;2022-12-07T09:24:56;4.10;99.90
26952;DHT22;14507;52.418;13.398;2022-12-07T09:27:21;4.20;99.90
26952;DHT22;14507;52.418;13.398;2022-12-07T09:29:47;4.20;99.90
26952;DHT22;14507;52.418;13.398;2022-12-07T09:32:13;4.20;99.90
26952;DHT22;14507;52.418;13.398;2022-12-07T09:34:38;4.20;99.90
26952;DHT22;14507;52.418;13.398;2022-12-07T09:37:04;4.20;99.90
26952;DHT22;14507;52.418;13.398;2022-12-07T09:39:30;4.20;99.90
26952;DHT22;14507;52.418;13.398;2022-12-07T09:41:57;4.30;99.90
26952;DHT22;14507;52.418;13.398;2022-12-07T09:44:26;4.30;99.90
26952;DHT22;14507;52.418;13.398;2022-12-07T09:46:53;4.30;99.90
26952;DHT22;14507;52.418;13.398;2022-12-07T09:49:21;4.40;99.90
26952;DHT22;14507;52.418;13.398;2022-12-07T09:51:58;4.40;99.90
26952;DHT22;14507;52.418;13.398;2022-12-07T09:54:24;4.50;99.90
26952;DHT22;14507;52.418;13.398;2022-12-07T09:56:50;4.40;99.90
26952;DHT22;14507;52.418;13.398;2022-12-07T09:59:19;4.40;99.90
26952;DHT22;14507;52.418;13.398;2022-12-07T10:01:47;4.40;99.90
26952;DHT22;14507;52.418;13.398;2022-12-07T10:06:38;4.30;99.90
26952;DHT22;14507;52.418;13.398;2022-12-07T10:09:22;4.30;99.90
26952;DHT22;14507;52.418;13.398;2022-12-07T10:12:04;4.30;99.90
26952;DHT22;14507;52.418;13.398;2022-12-07T10:14:32;4.20;99.90
26952;DHT22;14507;52.418;13.398;2022-12-07T10:16:59;4.20;99.90
26952;DHT22;14507;52.418;13.398;2022-12-07T10:19:31;4.20;99.90
26952;DHT22;14507;52.418;13.398;2022-12-07T10:22:11;4.10;99.90
26952;DHT22;14507;52.418;13.398;2022-12-07T10:24:38;4.10;99.90
26952;DHT22;14507;52.418;13.398;2022-12-07T10:27:05;4.10;99.90
26952;DHT22;14507;52.418;13.398;2022-12-07T10:29:37;4.10;99.90
26952;DHT22;14507;52.418;13.398;2022-12-07T10:34:49;4.20;99.90
26952;DHT22;14507;52.418;13.398;2022-12-07T10:37:17;4.10;99.90
26952;DHT22;14507;52.418;13.398;2022-12-07T10:42:24;4.10;99.90
26952;DHT22;14507;52.418;13.398;2022-12-07T10:45:17;4.20;99.90
26952;DHT22;14507;52.418;13.398;2022-12-07T10:47:58;4.20;99.90
26952;DHT22;14507;52.418;13.398;2022-12-07T10:56:19;4.30;99.90
26952;DHT22;14507;52.418;13.398;2022-12-07T11:03:50;4.40;99.90
26952;DHT22;14507;52.418;13.398;2022-12-07T11:11:35;4.50;99.90
26952;DHT22;14507;52.418;13.398;2022-12-07T11:19:43;4.50;99.90
26952;DHT22;14507;52.418;13.398;2022-12-07T11:38:52;4.70;99.90
26952;DHT22;14507;52.418;13.398;2022-12-07T11:41:23;4.70;99.90
26952;DHT22;14507;52.418;13.398;2022-12-07T11:46:45;4.70;99.90
26952;DHT22;14507;52.418;13.398;2022-12-07T11:51:55;4.70;99.90
26952;DHT22;14507;52.418;13.398;2022-12-07T11:54:29;4.80;99.90
26952;DHT22;14507;52.418;13.398;2022-12-07T11:57:02;4.70;99.90
26952;DHT22;14507;52.418;13.398;2022-12-07T11:59:38;4.80;99.90
26952;DHT22;14507;52.418;13.398;2022-12-07T12:02:23;4.80;99.90
26952;DHT22;14507;52.418;13.398;2022-12-07T12:05:02;4.80;99.90
26952;DHT22;14507;52.418;13.398;2022-12-07T12:07:29;4.80;99.90
26952;DHT22;14507;52.418;13.398;2022-12-07T12:09:58;4.80;99.90
26952;DHT22;14507;52.418;13.398;2022-12-07T12:12:39;5.00;99.90
26952;DHT22;14507;52.418;13.398;2022-12-07T12:25:50;5.00;99.90
26952;DHT22;14507;52.418;13.398;2022-12-07T12:31:31;4.80;99.90
26952;DHT22;14507;52.418;13.398;2022-12-07T12:34:04;4.90;99.90
26952;DHT22;14507;52.418;13.398;2022-12-07T12:47:03;4.90;99.90
26952;DHT22;14507;52.418;13.398;2022-12-07T12:49:36;4.90;99.90
26952;DHT22;14507;52.418;13.398;2022-12-07T12:57:27;5.00;99.90
26952;DHT22;14507;52.418;13.398;2022-12-07T13:02:29;5.00;99.90
26952;DHT22;14507;52.418;13.398;2022-12-07T13:18:00;5.10;99.90
26952;DHT22;14507;52.418;13.398;2022-12-07T13:23:22;5.10;99.90
26952;DHT22;14507;52.418;13.398;2022-12-07T13:25:57;5.10;99.90
26952;DHT22;14507;52.418;13.398;2022-12-07T13:28:31;5.10;99.90
26952;DHT22;14507;52.418;13.398;2022-12-07T13:31:14;5.10;99.90
26952;DHT22;14507;52.418;13.398;2022-12-07T13:33:45;5.10;99.90
26952;DHT22;14507;52.418;13.398;2022-12-07T13:36:19;5.10;99.90
26952;DHT22;14507;52.418;13.398;2022-12-07T13:39:00;5.10;99.90
26952;DHT22;14507;52.418;13.398;2022-12-07T13:41:35;5.00;99.90
26952;DHT22;14507;52.418;13.398;2022-12-07T13:44:15;5.00;99.90
26952;DHT22;14507;52.418;13.398;2022-12-07T13:49:36;5.00;99.90
26952;DHT22;14507;52.418;13.398;2022-12-07T13:54:57;5.00;99.90
26952;DHT22;14507;52.418;13.398;2022-12-07T13:57:28;4.90;99.90
26952;DHT22;14507;52.418;13.398;2022-12-07T13:59:56;4.90;99.90
26952;DHT22;14507;52.418;13.398;2022-12-07T14:04:51;4.90;99.90
26952;DHT22;14507;52.418;13.398;2022-12-07T14:07:22;4.90;99.90
26952;DHT22;14507;52.418;13.398;2022-12-07T14:12:24;4.80;99.90
26952;DHT22;14507;52.418;13.398;2022-12-07T14:14:51;5.20;99.90
26952;DHT22;14507;52.418;13.398;2022-12-07T14:17:19;4.80;99.90
26952;DHT22;14507;52.418;13.398;2022-12-07T14:19:53;4.80;99.90
26952;DHT22;14507;52.418;13.398;2022-12-07T14:25:20;4.80;99.90
26952;DHT22;14507;52.418;13.398;2022-12-07T14:30:18;4.80;99.90
26952;DHT22;14507;52.418;13.398;2022-12-07T14:32:45;4.80;99.90
26952;DHT22;14507;52.418;13.398;2022-12-07T14:35:16;4.80;99.90
26952;DHT22;14507;52.418;13.398;2022-12-07T14:37:45;4.70;99.90
26952;DHT22;14507;52.418;13.398;2022-12-07T14:40:22;4.70;99.90
26952;DHT22;14507;52.418;13.398;2022-12-07T14:42:51;4.70;99.90
26952;DHT22;14507;52.418;13.398;2022-12-07T14:45:21;4.70;99.90
26952;DHT22;14507;52.418;13.398;2022-12-07T14:47:48;4.70;99.90
26952;DHT22;14507;52.418;13.398;2022-12-07T14:50:16;4.70;99.90
26952;DHT22;14507;52.418;13.398;2022-12-07T14:52:43;4.70;99.90
26952;DHT22;14507;52.418;13.398;2022-12-07T14:55:25;4.70;99.90
26952;DHT22;14507;52.418;13.398;2022-12-07T14:57:51;4.60;99.90
26952;DHT22;14507;52.418;13.398;2022-12-07T15:00:17;4.60;99.90
26952;DHT22;14507;52.418;13.398;2022-12-07T15:02:45;4.50;99.90
26952;DHT22;14507;52.418;13.398;2022-12-07T15:05:11;4.50;99.90
26952;DHT22;14507;52.418;13.398;2022-12-07T15:07:37;4.50;99.90
26952;DHT22;14507;52.418;13.398;2022-12-07T15:10:03;4.40;99.90
26952;DHT22;14507;52.418;13.398;2022-12-07T15:12:29;4.40;99.90
26952;DHT22;14507;52.418;13.398;2022-12-07T15:14:55;4.40;99.90
26952;DHT22;14507;52.418;13.398;2022-12-07T15:17:30;4.40;99.90
26952;DHT22;14507;52.418;13.398;2022-12-07T15:20:14;4.30;99.90
26952;DHT22;14507;52.418;13.398;2022-12-07T15:22:41;4.30;99.90
26952;DHT22;14507;52.418;13.398;2022-12-07T15:25:12;4.20;99.90
26952;DHT22;14507;52.418;13.398;2022-12-07T15:27:38;4.20;99.90
26952;DHT22;14507;52.418;13.398;2022-12-07T15:30:05;4.20;99.90
26952;DHT22;14507;52.418;13.398;2022-12-07T15:32:31;4.10;99.90
26952;DHT22;14507;52.418;13.398;2022-12-07T15:34:56;4.10;99.90
26952;DHT22;14507;52.418;13.398;2022-12-07T15:37:22;4.00;99.90
26952;DHT22;14507;52.418;13.398;2022-12-07T15:39:48;4.00;99.90
26952;DHT22;14507;52.418;13.398;2022-12-07T15:42:14;4.00;99.90
26952;DHT22;14507;52.418;13.398;2022-12-07T15:44:40;3.90;99.90
26952;DHT22;14507;52.418;13.398;2022-12-07T15:47:24;3.90;99.90
26952;DHT22;14507;52.418;13.398;2022-12-07T15:49:49;3.90;99.90
26952;DHT22;14507;52.418;13.398;2022-12-07T15:52:15;3.90;99.90
26952;DHT22;14507;52.418;13.398;2022-12-07T15:54:41;3.90;99.90
26952;DHT22;14507;52.418;13.398;2022-12-07T15:57:07;3.90;99.90
26952;DHT22;14507;52.418;13.398;2022-12-07T15:59:32;4.00;99.90
26952;DHT22;14507;52.418;13.398;2022-12-07T16:01:58;3.90;99.90
26952;DHT22;14507;52.418;13.398;2022-12-07T16:04:24;3.90;99.90
26952;DHT22;14507;52.418;13.398;2022-12-07T16:06:50;4.40;99.90
26952;DHT22;14507;52.418;13.398;2022-12-07T16:09:16;3.90;99.90
26952;DHT22;14507;52.418;13.398;2022-12-07T16:11:42;3.70;99.90
26952;DHT22;14507;52.418;13.398;2022-12-07T16:14:07;3.90;99.90
26952;DHT22;14507;52.418;13.398;2022-12-07T16:16:33;3.80;99.90
26952;DHT22;14507;52.418;13.398;2022-12-07T16:18:59;3.70;99.90
26952;DHT22;14507;52.418;13.398;2022-12-07T16:21:24;3.80;99.90
26952;DHT22;14507;52.418;13.398;2022-12-07T16:23:50;4.40;99.90
26952;DHT22;14507;52.418;13.398;2022-12-07T16:26:18;3.60;99.90
26952;DHT22;14507;52.418;13.398;2022-12-07T16:28:44;3.50;99.90
26952;DHT22;14507;52.418;13.398;2022-12-07T16:31:13;4.20;99.90
26952;DHT22;14507;52.418;13.398;2022-12-07T16:33:40;3.60;99.90
26952;DHT22;14507;52.418;13.398;2022-12-07T16:36:08;4.30;99.90
26952;DHT22;14507;52.418;13.398;2022-12-07T16:38:35;3.60;99.90
26952;DHT22;14507;52.418;13.398;2022-12-07T16:41:01;3.50;99.90
26952;DHT22;14507;52.418;13.398;2022-12-07T16:43:27;3.50;99.90
26952;DHT22;14507;52.418;13.398;2022-12-07T16:45:53;3.40;99.90
26952;DHT22;14507;52.418;13.398;2022-12-07T16:48:19;3.80;99.90
26952;DHT22;14507;52.418;13.398;2022-12-07T16:50:45;3.50;99.90
26952;DHT22;14507;52.418;13.398;2022-12-07T16:53:12;3.50;99.90
26952;DHT22;14507;52.418;13.398;2022-12-07T16:55:39;3.40;99.90
26952;DHT22;14507;52.418;13.398;2022-12-07T16:58:06;3.50;99.90
26952;DHT22;14507;52.418;13.398;2022-12-07T17:00:36;3.50;99.90
26952;DHT22;14507;52.418;13.398;2022-12-07T17:03:03;3.40;99.90
26952;DHT22;14507;52.418;13.398;2022-12-07T17:05:29;3.40;99.90
26952;DHT22;14507;52.418;13.398;2022-12-07T17:07:55;3.40;99.90
26952;DHT22;14507;52.418;13.398;2022-12-07T17:10:21;3.30;99.90
26952;DHT22;14507;52.418;13.398;2022-12-07T17:12:47;3.50;99.90
26952;DHT22;14507;52.418;13.398;2022-12-07T17:15:13;3.30;99.90
26952;DHT22;14507;52.418;13.398;2022-12-07T17:17:53;3.30;99.90
26952;DHT22;14507;52.418;13.398;2022-12-07T17:20:20;3.30;99.90
26952;DHT22;14507;52.418;13.398;2022-12-07T17:22:46;3.40;99.90
26952;DHT22;14507;52.418;13.398;2022-12-07T17:25:12;3.30;99.90
26952;DHT22;14507;52.418;13.398;2022-12-07T17:27:38;3.20;99.90
26952;DHT22;14507;52.418;13.398;2022-12-07T17:30:05;3.20;99.90
26952;DHT22;14507;52.418;13.398;2022-12-07T17:32:31;3.10;99.90
26952;DHT22;14507;52.418;13.398;2022-12-07T17:34:57;3.20;99.90
26952;DHT22;14507;52.418;13.398;2022-12-07T17:37:23;3.20;99.90
26952;DHT22;14507;52.418;13.398;2022-12-07T17:39:48;3.20;99.90
26952;DHT22;14507;52.418;13.398;2022-12-07T17:42:14;3.10;99.90
26952;DHT22;14507;52.418;13.398;2022-12-07T17:44:59;3.20;99.90
26952;DHT22;14507;52.418;13.398;2022-12-07T17:47:24;3.20;99.90
26952;DHT22;14507;52.418;13.398;2022-12-07T17:49:50;3.10;99.90
26952;DHT22;14507;52.418;13.398;2022-12-07T17:52:15;3.10;99.90
26952;DHT22;14507;52.418;13.398;2022-12-07T17:55:00;3.00;99.90
26952;DHT22;14507;52.418;13.398;2022-12-07T17:57:25;3.00;99.90
26952;DHT22;14507;52.418;13.398;2022-12-07T17:59:51;3.00;99.90
26952;DHT22;14507;52.418;13.398;2022-12-07T18:02:17;2.90;99.90
26952;DHT22;14507;52.418;13.398;2022-12-07T18:04:43;3.00;99.90
26952;DHT22;14507;52.418;13.398;2022-12-07T18:07:10;2.90;99.90